Domov               UVHVVR             MKGP            O straneh              
ZDRAVSTVENO VARSTVO RASTLIN
  MREŽA AGROMET. POSTAJ
 ► PROGNOSTIČNA OBVESTILA
AGROMETEOROLOŠKI PODATKI -
ARSO
OBVLADOVANJE TVEGANJ ZARADI
NEUGODNIH VREMENSKIH RAZMER
  ► NARAVNE NESREČE
  ► SUŠA/MOČA
  ► NAMAKANJE
  ► ŽLED (gozdarstvo)
KARTOGRAFSKI PRIKAZI
SPLETNE POVEZAVE
PROJEKTI IN PUBLIKACIJE

AGROMETEOROLOŠKA MREŽA: VREMENSKE POSTAJE IN FENOLOŠKA OPAZOVANJA

Pregled podatkov za lokacijo Svečina, meteorološka postaja 24393

Pregled senzorjev na lokaciji

ID Ime Zadnja
vrednost
Datum
zadnje
spremembe
Tip
senzorja
922 Omočenost lista (U) 0 U 19.7.2018 22:00 A730WET
925 Padavine (mm) 0 mm 19.7.2018 22:00 Generic 0.2 mm
924 Relativna vlaga 2 m (% RH) 66,2 % RH 19.7.2018 22:00 Generic 0 - 100 %
923 Temperatura 2 m (°C) 20,85 °C 19.7.2018 22:00 Generic -40 - +60 °C

Pregled podatkov zadnjih 24 ur

Zap.
št.
Datum in čas Svečina
Omočenost
lista
Padavine Relativna
vlaga
2
m
Temperatura
2
m
1 19.7.2018 23:30
2 19.7.2018 23:00
3 19.7.2018 22:30
4 19.7.2018 22:00
5 19.7.2018 21:30
6 19.7.2018 21:00 0 0 66,2 20,9
7 19.7.2018 20:30 0 0 61,7 21,7
8 19.7.2018 20:00 0 0 57,6 22,7
9 19.7.2018 19:30 0 0 51,8 24,3
10 19.7.2018 19:00 10 0 43,8 25,8
11 19.7.2018 18:30 10 0 40 26,7
12 19.7.2018 18:00 10 0 35,2 28
13 19.7.2018 17:30 10 0 30,9 28,8
14 19.7.2018 17:00 10 0 30,7 29,3
15 19.7.2018 16:30 10 0 30 29,4
16 19.7.2018 16:00 10 0 30,6 29,3
17 19.7.2018 15:30 10 0 30,5 29,4
18 19.7.2018 15:00 10 0 28,5 30
19 19.7.2018 14:30 10 0 26,9 29,9
20 19.7.2018 14:00 10 0 26,3 30
21 19.7.2018 13:30 10 0 27,6 29,4
22 19.7.2018 13:00 10 0 28 29,2
23 19.7.2018 12:30 10 0 29,3 28,9
24 19.7.2018 12:00 10 0 31,5 28,5
25 19.7.2018 11:30 10 0 34,9 28
26 19.7.2018 11:00 10 0 37,2 27,3
27 19.7.2018 10:30 10 0 40 26,5
28 19.7.2018 10:00 10 0 38,9 26,6
29 19.7.2018 09:30 10 0 41,4 25,9
30 19.7.2018 09:00 4 0 43,4 25,3
31 19.7.2018 08:30 0 0 47,5 24,4
32 19.7.2018 08:00 0 0 48,5 24,1
33 19.7.2018 07:30 0 0 53,4 22,7
34 19.7.2018 07:00 0 0 56,1 21,4
35 19.7.2018 06:30 0 0 61,1 19,2
36 19.7.2018 06:00 0 0 69,3 16,6
37 19.7.2018 05:30 0 0 74 15,5
38 19.7.2018 05:00 0 0 77,1 14,9
39 19.7.2018 04:30 0 0 77,8 14,9
40 19.7.2018 04:00 0 0 78,1 15,2
41 19.7.2018 03:30 0 0 76,4 15,5
42 19.7.2018 03:00 0 0 78,4 15,6
43 19.7.2018 02:30 0 0 84,2 15,5
44 19.7.2018 02:00 0 0 85 15,7
45 19.7.2018 01:30 0 0 83,6 15,7
46 19.7.2018 01:00 0 0 81,3 16,1
47 19.7.2018 00:30 0 0 80,1 16,6
48 19.7.2018 00:00 0 0 76 17,8
© 2011 Ministrstvo za kmetijstvo, gozdarstvo in prehrano. Vse pravice pridržane.